EWG1MK LOWI-EDDC
Flight info
| Callsign | EWG1MK |
|---|---|
| Flight time | 0h 55m |
| Altitude | 30000 |
| Route | KOGOL M726 BETOS/N0452F320 M726 MAH L132 RUDNO T203 TIVDA/N0454F310 DCT ETVIS DCT NAVEK DCT GAVLI T203 BESIP Q240 DRN |
| Aircraft | A320/M-SDE3FGHIRWY/LB1 |
Departure
| Time | 2026-04-30 20:00 |
|---|---|
| Airport | Innsbruck Airport (LOWI) |
Arrival
| Time | 2026-04-30 20:56 |
|---|---|
| Airport | Dresden Airport (EDDC) |
| Time | Latitude | Longitude | Altitude | Speed | Heading |
|---|---|---|---|---|---|
| 2026-04-30 19:33 | 47.25829 | 11.35108 | 1902 ft | 0 kts | 171° |
| 2026-04-30 19:53 | 47.25843 | 11.35105 | 1894 ft | 4 kts | 172° |
| 2026-04-30 19:53 | 47.25869 | 11.35103 | 1904 ft | 4 kts | 193° |
| 2026-04-30 19:53 | 47.25885 | 11.35116 | 1892 ft | 2 kts | 261° |
| 2026-04-30 19:54 | 47.25885 | 11.35118 | 1892 ft | 0 kts | 261° |
| 2026-04-30 19:56 | 47.25877 | 11.35050 | 1896 ft | 10 kts | 261° |
| 2026-04-30 19:57 | 47.25866 | 11.34948 | 1900 ft | 12 kts | 261° |
| 2026-04-30 19:57 | 47.25849 | 11.34796 | 1903 ft | 15 kts | 261° |
| 2026-04-30 19:57 | 47.25834 | 11.34647 | 1902 ft | 14 kts | 261° |
| 2026-04-30 19:57 | 47.25819 | 11.34511 | 1895 ft | 15 kts | 261° |
| 2026-04-30 19:58 | 47.25799 | 11.34322 | 1907 ft | 20 kts | 261° |
| 2026-04-30 19:58 | 47.25776 | 11.34111 | 1898 ft | 22 kts | 261° |
| 2026-04-30 19:58 | 47.25802 | 11.33895 | 1902 ft | 23 kts | 303° |
| 2026-04-30 19:58 | 47.25897 | 11.33703 | 1902 ft | 23 kts | 306° |
| 2026-04-30 19:59 | 47.25922 | 11.33481 | 1894 ft | 24 kts | 261° |
| 2026-04-30 19:59 | 47.25864 | 11.33248 | 1895 ft | 25 kts | 234° |
| 2026-04-30 19:59 | 47.25882 | 11.33101 | 1895 ft | 9 kts | 69° |
| 2026-04-30 20:00 | 47.25891 | 11.33194 | 1893 ft | 12 kts | 81° |
| 2026-04-30 20:00 | 47.25935 | 11.33601 | 1901 ft | 78 kts | 81° |
| 2026-04-30 20:00 | 47.26057 | 11.34726 | 1920 ft | 140 kts | 81° |
| 2026-04-30 20:00 | 47.26212 | 11.36183 | 2526 ft | 145 kts | 81° |
| 2026-04-30 20:01 | 47.26499 | 11.39161 | 3825 ft | 150 kts | 82° |
| 2026-04-30 20:01 | 47.26658 | 11.40749 | 4222 ft | 163 kts | 82° |
| 2026-04-30 20:01 | 47.26833 | 11.42432 | 4658 ft | 169 kts | 82° |
| 2026-04-30 20:02 | 47.27503 | 11.45810 | 5734 ft | 178 kts | 70° |
| 2026-04-30 20:02 | 47.27942 | 11.47526 | 6056 ft | 190 kts | 69° |
| 2026-04-30 20:03 | 47.29048 | 11.51562 | 6603 ft | 233 kts | 68° |
| 2026-04-30 20:03 | 47.29687 | 11.53857 | 7111 ft | 247 kts | 68° |
| 2026-04-30 20:03 | 47.30349 | 11.56214 | 7895 ft | 251 kts | 67° |
| 2026-04-30 20:03 | 47.31048 | 11.58690 | 8454 ft | 270 kts | 67° |
| 2026-04-30 20:04 | 47.31781 | 11.61274 | 9242 ft | 276 kts | 67° |
| 2026-04-30 20:04 | 47.32535 | 11.63896 | 10156 ft | 280 kts | 66° |
| 2026-04-30 20:04 | 47.33312 | 11.66581 | 10717 ft | 295 kts | 66° |
| 2026-04-30 20:05 | 47.35042 | 11.72569 | 11488 ft | 333 kts | 66° |
| 2026-04-30 20:05 | 47.35954 | 11.75731 | 12254 ft | 337 kts | 66° |
| 2026-04-30 20:05 | 47.37787 | 11.82122 | 13976 ft | 340 kts | 65° |
| 2026-04-30 20:06 | 47.38707 | 11.85346 | 14749 ft | 341 kts | 65° |
| 2026-04-30 20:06 | 47.39629 | 11.88579 | 15435 ft | 343 kts | 65° |
| 2026-04-30 20:06 | 47.40554 | 11.91830 | 16227 ft | 344 kts | 66° |
| 2026-04-30 20:06 | 47.41479 | 11.95086 | 16960 ft | 344 kts | 65° |
| 2026-04-30 20:07 | 47.42410 | 11.98364 | 17704 ft | 346 kts | 65° |
| 2026-04-30 20:07 | 47.43388 | 12.01566 | 18419 ft | 347 kts | 57° |
| 2026-04-30 20:07 | 47.47312 | 12.05325 | 19570 ft | 357 kts | 9° |
| 2026-04-30 20:08 | 47.49811 | 12.04890 | 20136 ft | 372 kts | 345° |
| 2026-04-30 20:08 | 47.52049 | 12.02839 | 20685 ft | 392 kts | 322° |
| 2026-04-30 20:08 | 47.53636 | 11.99457 | 21190 ft | 411 kts | 301° |
| 2026-04-30 20:08 | 47.54838 | 11.95596 | 21705 ft | 411 kts | 306° |
| 2026-04-30 20:09 | 47.56353 | 11.92024 | 22226 ft | 412 kts | 307° |
| 2026-04-30 20:09 | 47.57428 | 11.88012 | 22711 ft | 430 kts | 288° |
| 2026-04-30 20:09 | 47.58321 | 11.79101 | 23731 ft | 440 kts | 284° |
| 2026-04-30 20:10 | 47.59204 | 11.70157 | 24597 ft | 444 kts | 284° |
| 2026-04-30 20:10 | 47.59663 | 11.65625 | 24996 ft | 447 kts | 284° |
| 2026-04-30 20:10 | 47.60125 | 11.61059 | 25359 ft | 450 kts | 284° |
| 2026-04-30 20:11 | 47.61295 | 11.51946 | 26065 ft | 446 kts | 297° |
| 2026-04-30 20:11 | 47.62628 | 11.47857 | 26417 ft | 436 kts | 310° |
| 2026-04-30 20:11 | 47.64497 | 11.44381 | 26744 ft | 426 kts | 323° |
| 2026-04-30 20:12 | 47.69329 | 11.39751 | 27421 ft | 408 kts | 346° |
| 2026-04-30 20:12 | 47.72047 | 11.38678 | 27740 ft | 402 kts | 357° |
| 2026-04-30 20:12 | 47.74829 | 11.38260 | 28100 ft | 402 kts | 0° |
| 2026-04-30 20:13 | 47.77619 | 11.37888 | 28481 ft | 404 kts | 0° |
| 2026-04-30 20:13 | 47.80425 | 11.37512 | 28842 ft | 406 kts | 0° |
| 2026-04-30 20:13 | 47.83238 | 11.37134 | 29189 ft | 407 kts | 0° |
| 2026-04-30 20:13 | 47.86072 | 11.36754 | 29519 ft | 409 kts | 1° |
| 2026-04-30 20:14 | 47.88912 | 11.36437 | 29832 ft | 410 kts | 2° |
| 2026-04-30 20:14 | 47.91770 | 11.36186 | 30159 ft | 412 kts | 3° |
| 2026-04-30 20:14 | 47.94633 | 11.35972 | 30332 ft | 411 kts | 3° |
| 2026-04-30 20:15 | 48.00256 | 11.35549 | 30354 ft | 401 kts | 3° |
| 2026-04-30 20:15 | 48.05826 | 11.35090 | 30356 ft | 400 kts | 3° |
| 2026-04-30 20:16 | 48.11401 | 11.34321 | 30355 ft | 404 kts | 359° |
| 2026-04-30 20:16 | 48.16975 | 11.33146 | 30352 ft | 405 kts | 358° |
| 2026-04-30 20:17 | 48.22539 | 11.32354 | 30355 ft | 396 kts | 9° |
| 2026-04-30 20:17 | 48.25225 | 11.33028 | 30355 ft | 388 kts | 20° |
| 2026-04-30 20:17 | 48.27726 | 11.34484 | 30353 ft | 383 kts | 30° |
| 2026-04-30 20:18 | 48.31900 | 11.39234 | 30347 ft | 380 kts | 44° |
| 2026-04-30 20:18 | 48.35709 | 11.44748 | 30359 ft | 380 kts | 44° |
| 2026-04-30 20:19 | 48.39521 | 11.50269 | 30362 ft | 380 kts | 44° |
| 2026-04-30 20:19 | 48.43330 | 11.55805 | 30362 ft | 381 kts | 44° |
| 2026-04-30 20:20 | 48.47130 | 11.61357 | 30362 ft | 381 kts | 44° |
| 2026-04-30 20:20 | 48.50928 | 11.66925 | 30362 ft | 381 kts | 44° |
| 2026-04-30 20:21 | 48.54732 | 11.72488 | 30361 ft | 381 kts | 44° |
| 2026-04-30 20:21 | 48.58539 | 11.78037 | 30416 ft | 380 kts | 44° |
| 2026-04-30 20:22 | 48.62341 | 11.83575 | 30406 ft | 379 kts | 44° |
| 2026-04-30 20:22 | 48.66120 | 11.89108 | 30403 ft | 378 kts | 44° |
| 2026-04-30 20:23 | 48.69885 | 11.94636 | 30387 ft | 377 kts | 44° |
| 2026-04-30 20:23 | 48.73655 | 12.00169 | 30380 ft | 377 kts | 44° |
| 2026-04-30 20:24 | 48.77422 | 12.05699 | 30379 ft | 377 kts | 44° |
| 2026-04-30 20:24 | 48.81180 | 12.11251 | 30384 ft | 377 kts | 44° |
| 2026-04-30 20:25 | 48.86809 | 12.19587 | 30381 ft | 377 kts | 44° |
| 2026-04-30 20:26 | 48.93550 | 12.25720 | 30379 ft | 380 kts | 27° |
| 2026-04-30 20:26 | 49.00760 | 12.30779 | 30389 ft | 380 kts | 28° |
| 2026-04-30 20:27 | 49.10367 | 12.37583 | 30383 ft | 380 kts | 28° |
| 2026-04-30 20:28 | 49.19968 | 12.44409 | 30393 ft | 381 kts | 28° |
| 2026-04-30 20:30 | 49.31976 | 12.52983 | 30405 ft | 381 kts | 28° |
| 2026-04-30 20:31 | 49.44137 | 12.66009 | 30452 ft | 376 kts | 31° |
| 2026-04-30 20:32 | 49.56738 | 12.75329 | 29803 ft | 380 kts | 28° |
| 2026-04-30 20:33 | 49.58352 | 12.76528 | 29482 ft | 381 kts | 28° |
| 2026-04-30 20:33 | 49.63161 | 12.80084 | 28544 ft | 386 kts | 26° |
| 2026-04-30 20:33 | 49.65701 | 12.81523 | 28086 ft | 391 kts | 20° |
| 2026-04-30 20:34 | 49.71072 | 12.83038 | 27195 ft | 393 kts | 13° |
| 2026-04-30 20:34 | 49.76419 | 12.84275 | 26336 ft | 389 kts | 13° |
| 2026-04-30 20:35 | 49.79088 | 12.84896 | 25924 ft | 387 kts | 13° |
| 2026-04-30 20:35 | 49.81783 | 12.85517 | 25496 ft | 385 kts | 13° |
| 2026-04-30 20:35 | 49.87032 | 12.86721 | 24687 ft | 382 kts | 13° |
| 2026-04-30 20:36 | 49.89656 | 12.87324 | 24290 ft | 381 kts | 13° |
| 2026-04-30 20:36 | 49.92273 | 12.87928 | 23869 ft | 379 kts | 13° |
| 2026-04-30 20:36 | 49.97465 | 12.89137 | 22935 ft | 375 kts | 13° |
| 2026-04-30 20:37 | 50.00039 | 12.89743 | 22478 ft | 373 kts | 12° |
| 2026-04-30 20:37 | 50.02599 | 12.90345 | 22029 ft | 371 kts | 12° |
| 2026-04-30 20:37 | 50.05148 | 12.90941 | 21588 ft | 370 kts | 12° |
| 2026-04-30 20:37 | 50.07689 | 12.91533 | 21153 ft | 368 kts | 12° |
| 2026-04-30 20:38 | 50.10216 | 12.92121 | 20726 ft | 367 kts | 12° |
| 2026-04-30 20:38 | 50.12734 | 12.92709 | 20304 ft | 365 kts | 12° |
| 2026-04-30 20:38 | 50.15241 | 12.93295 | 19887 ft | 364 kts | 12° |
| 2026-04-30 20:39 | 50.20238 | 12.94468 | 19048 ft | 362 kts | 12° |
| 2026-04-30 20:39 | 50.22729 | 12.95055 | 18640 ft | 362 kts | 12° |
| 2026-04-30 20:39 | 50.25217 | 12.95639 | 18177 ft | 360 kts | 12° |
| 2026-04-30 20:40 | 50.30015 | 12.97502 | 17278 ft | 352 kts | 26° |
| 2026-04-30 20:40 | 50.32208 | 12.99200 | 16837 ft | 350 kts | 28° |
| 2026-04-30 20:40 | 50.34373 | 13.00921 | 16405 ft | 349 kts | 28° |
| 2026-04-30 20:41 | 50.38685 | 13.04342 | 15579 ft | 346 kts | 28° |
| 2026-04-30 20:41 | 50.40829 | 13.06041 | 15154 ft | 344 kts | 28° |
| 2026-04-30 20:41 | 50.42963 | 13.07731 | 14743 ft | 343 kts | 28° |
| 2026-04-30 20:41 | 50.45087 | 13.09415 | 14341 ft | 342 kts | 28° |
| 2026-04-30 20:42 | 50.47203 | 13.11097 | 13899 ft | 340 kts | 28° |
| 2026-04-30 20:42 | 50.49309 | 13.12773 | 13452 ft | 339 kts | 28° |
| 2026-04-30 20:42 | 50.53484 | 13.16111 | 12567 ft | 335 kts | 28° |
| 2026-04-30 20:43 | 50.55557 | 13.17775 | 12133 ft | 334 kts | 28° |
| 2026-04-30 20:43 | 50.57619 | 13.19430 | 11710 ft | 332 kts | 28° |
| 2026-04-30 20:43 | 50.59673 | 13.21079 | 11288 ft | 329 kts | 28° |
| 2026-04-30 20:44 | 50.63724 | 13.24332 | 10455 ft | 325 kts | 29° |
| 2026-04-30 20:44 | 50.65719 | 13.25938 | 10009 ft | 319 kts | 29° |
| 2026-04-30 20:44 | 50.69601 | 13.29067 | 9114 ft | 308 kts | 29° |
| 2026-04-30 20:45 | 50.73359 | 13.32117 | 8241 ft | 300 kts | 29° |
| 2026-04-30 20:45 | 50.75203 | 13.33615 | 7813 ft | 296 kts | 29° |
| 2026-04-30 20:45 | 50.77024 | 13.35093 | 7392 ft | 293 kts | 29° |
| 2026-04-30 20:46 | 50.82101 | 13.39198 | 6085 ft | 259 kts | 29° |
| 2026-04-30 20:46 | 50.83674 | 13.40476 | 5655 ft | 257 kts | 29° |
| 2026-04-30 20:47 | 50.86747 | 13.42980 | 5066 ft | 230 kts | 29° |
| 2026-04-30 20:47 | 50.88104 | 13.44085 | 4938 ft | 210 kts | 30° |
| 2026-04-30 20:48 | 50.90504 | 13.46041 | 4701 ft | 175 kts | 30° |
| 2026-04-30 20:48 | 50.91537 | 13.46882 | 4418 ft | 165 kts | 30° |
| 2026-04-30 20:48 | 50.92561 | 13.47721 | 4045 ft | 163 kts | 29° |
| 2026-04-30 20:48 | 50.93546 | 13.48636 | 4013 ft | 165 kts | 36° |
| 2026-04-30 20:49 | 50.94435 | 13.49797 | 4013 ft | 166 kts | 43° |
| 2026-04-30 20:49 | 50.95295 | 13.51018 | 4010 ft | 166 kts | 43° |
| 2026-04-30 20:49 | 50.96157 | 13.52239 | 4010 ft | 166 kts | 43° |
| 2026-04-30 20:50 | 50.97881 | 13.54680 | 4010 ft | 166 kts | 43° |
| 2026-04-30 20:50 | 50.98743 | 13.55901 | 4013 ft | 166 kts | 43° |
| 2026-04-30 20:50 | 50.99461 | 13.57169 | 3995 ft | 143 kts | 53° |
| 2026-04-30 20:50 | 51.00060 | 13.58351 | 3975 ft | 133 kts | 49° |
| 2026-04-30 20:51 | 51.00700 | 13.59377 | 3968 ft | 129 kts | 43° |
| 2026-04-30 20:51 | 51.02083 | 13.61245 | 3553 ft | 130 kts | 41° |
| 2026-04-30 20:51 | 51.02763 | 13.62170 | 3340 ft | 128 kts | 41° |
| 2026-04-30 20:52 | 51.03436 | 13.63087 | 3158 ft | 127 kts | 41° |
| 2026-04-30 20:52 | 51.04105 | 13.64001 | 2985 ft | 127 kts | 41° |
| 2026-04-30 20:52 | 51.05440 | 13.65828 | 2630 ft | 127 kts | 41° |
| 2026-04-30 20:53 | 51.06110 | 13.66744 | 2459 ft | 127 kts | 41° |
| 2026-04-30 20:53 | 51.06781 | 13.67664 | 2288 ft | 128 kts | 41° |
| 2026-04-30 20:53 | 51.07455 | 13.68587 | 2113 ft | 128 kts | 41° |
| 2026-04-30 20:54 | 51.08807 | 13.70442 | 1748 ft | 129 kts | 41° |
| 2026-04-30 20:54 | 51.09487 | 13.71375 | 1561 ft | 130 kts | 41° |
| 2026-04-30 20:54 | 51.10177 | 13.72321 | 1388 ft | 132 kts | 41° |
| 2026-04-30 20:55 | 51.11567 | 13.74232 | 1004 ft | 133 kts | 41° |
| 2026-04-30 20:55 | 51.12269 | 13.75195 | 822 ft | 134 kts | 41° |
| 2026-04-30 20:55 | 51.12958 | 13.76141 | 715 ft | 122 kts | 40° |
| 2026-04-30 20:56 | 51.13778 | 13.77272 | 719 ft | 30 kts | 40° |
| 2026-04-30 20:56 | 51.13905 | 13.77453 | 713 ft | 19 kts | 56° |
| 2026-04-30 20:56 | 51.13828 | 13.77648 | 714 ft | 4 kts | 131° |
| 2026-04-30 20:57 | 51.13821 | 13.77661 | 714 ft | 0 kts | 131° |
| 2026-04-30 20:57 | 51.13812 | 13.77678 | 715 ft | 10 kts | 129° |
| 2026-04-30 20:57 | 51.13738 | 13.77695 | 715 ft | 13 kts | 219° |
| 2026-04-30 20:58 | 51.13598 | 13.77502 | 714 ft | 14 kts | 221° |
| 2026-04-30 20:58 | 51.13518 | 13.77393 | 711 ft | 16 kts | 221° |
| 2026-04-30 20:58 | 51.13427 | 13.77268 | 714 ft | 18 kts | 220° |
| 2026-04-30 20:58 | 51.13323 | 13.77126 | 713 ft | 21 kts | 220° |
| 2026-04-30 20:59 | 51.13082 | 13.76794 | 714 ft | 25 kts | 221° |
| 2026-04-30 20:59 | 51.12952 | 13.76615 | 712 ft | 22 kts | 221° |
| 2026-04-30 21:00 | 51.12765 | 13.76507 | 713 ft | 16 kts | 133° |
| 2026-04-30 21:00 | 51.12659 | 13.76683 | 712 ft | 6 kts | 172° |
| 2026-04-30 21:01 | 51.12609 | 13.76622 | 713 ft | 4 kts | 221° |
| 2026-04-30 21:01 | 51.12597 | 13.76606 | 713 ft | 0 kts | 221° |